createdAt,value
2019-05-12T00:00:18.387Z,1004.61
2019-05-12T00:01:18.752Z,1004.66
2019-05-12T00:02:17.869Z,1004.62
2019-05-12T00:03:18.889Z,1004.62
2019-05-12T00:04:18.952Z,1004.64
2019-05-12T00:05:18.537Z,1004.65
2019-05-12T00:06:17.758Z,1004.67
2019-05-12T00:07:18.058Z,1004.67
2019-05-12T00:08:18.900Z,1004.67
2019-05-12T00:09:18.792Z,1004.75
2019-05-12T00:10:17.833Z,1004.76
2019-05-12T00:11:17.937Z,1004.78
2019-05-12T00:12:18.420Z,1004.77
2019-05-12T00:13:18.998Z,1004.74
2019-05-12T00:14:17.795Z,1004.78
2019-05-12T00:15:19.159Z,1004.78
2019-05-12T00:16:17.735Z,1004.74
2019-05-12T00:17:18.787Z,1004.76
2019-05-12T00:18:18.057Z,1004.75
2019-05-12T00:19:17.925Z,1004.77
2019-05-12T00:20:18.146Z,1004.74
2019-05-12T00:21:17.725Z,1004.76
2019-05-12T00:22:18.119Z,1004.76
2019-05-12T00:23:26.751Z,1004.73
2019-05-12T00:24:18.635Z,1004.75
2019-05-12T00:25:18.121Z,1004.76
2019-05-12T00:26:18.614Z,1004.78
2019-05-12T00:27:17.858Z,1004.78
2019-05-12T00:28:17.952Z,1004.75
2019-05-12T00:29:18.508Z,1004.75
2019-05-12T00:30:18.522Z,1004.78
2019-05-12T00:31:18.845Z,1004.84
2019-05-12T00:32:17.953Z,1004.87
2019-05-12T00:33:17.974Z,1004.89
2019-05-12T00:34:18.480Z,1004.83
2019-05-12T00:35:18.245Z,1004.90
2019-05-12T00:36:18.550Z,1004.88
2019-05-12T00:37:18.556Z,1004.92
2019-05-12T00:38:17.657Z,1004.98
2019-05-12T00:39:18.892Z,1004.95
2019-05-12T00:40:19.034Z,1005.00
2019-05-12T00:41:18.140Z,1004.97
2019-05-12T00:42:18.257Z,1004.97
2019-05-12T00:43:18.745Z,1005.02
2019-05-12T00:44:18.373Z,1005.03
2019-05-12T00:45:18.119Z,1005.08
2019-05-12T00:46:18.333Z,1005.08
2019-05-12T00:47:18.794Z,1005.07
2019-05-12T00:48:17.803Z,1005.09
2019-05-12T00:49:18.639Z,1005.09
2019-05-12T00:50:18.422Z,1005.13
2019-05-12T00:51:18.104Z,1005.11
2019-05-12T00:52:18.670Z,1005.12
2019-05-12T00:53:18.682Z,1005.14
2019-05-12T00:54:17.861Z,1005.11
2019-05-12T00:55:18.455Z,1005.14
2019-05-12T00:56:17.727Z,1005.23
2019-05-12T00:57:18.195Z,1005.21
2019-05-12T00:58:19.375Z,1005.20
2019-05-12T00:59:18.835Z,1005.20
2019-05-12T01:00:17.867Z,1005.26
2019-05-12T01:01:18.401Z,1005.29
2019-05-12T01:02:18.335Z,1005.29
2019-05-12T01:03:18.839Z,1005.31
2019-05-12T01:04:17.549Z,1005.35
2019-05-12T01:05:17.727Z,1005.38
2019-05-12T01:06:17.836Z,1005.34
2019-05-12T01:07:18.332Z,1005.42
2019-05-12T01:08:18.526Z,1005.45
2019-05-12T01:09:17.659Z,1005.38
2019-05-12T01:10:17.948Z,1005.43
2019-05-12T01:11:17.808Z,1005.44
2019-05-12T01:12:18.093Z,1005.45
2019-05-12T01:13:18.612Z,1005.45
2019-05-12T01:14:18.499Z,1005.44
2019-05-12T01:15:17.815Z,1005.49
2019-05-12T01:16:18.354Z,1005.49
2019-05-12T01:17:17.716Z,1005.45
2019-05-12T01:18:18.140Z,1005.46
2019-05-12T01:19:18.521Z,1005.48
2019-05-12T01:20:17.881Z,1005.51
2019-05-12T01:21:18.459Z,1005.46
2019-05-12T01:22:18.578Z,1005.52
2019-05-12T01:23:18.679Z,1005.51
2019-05-12T01:24:18.533Z,1005.51
2019-05-12T01:25:17.636Z,1005.52
2019-05-12T01:26:17.934Z,1005.51
2019-05-12T01:27:18.108Z,1005.50
2019-05-12T01:28:18.259Z,1005.49
2019-05-12T01:29:17.686Z,1005.52
2019-05-12T01:30:18.046Z,1005.50
2019-05-12T01:31:18.046Z,1005.53
2019-05-12T01:32:18.244Z,1005.52
2019-05-12T01:33:18.146Z,1005.59
2019-05-12T01:34:18.152Z,1005.56
2019-05-12T01:35:18.397Z,1005.64
2019-05-12T01:36:18.112Z,1005.64
2019-05-12T01:37:17.955Z,1005.66
2019-05-12T01:38:18.218Z,1005.72
2019-05-12T01:39:18.615Z,1005.71
2019-05-12T01:40:18.870Z,1005.79
2019-05-12T01:41:18.005Z,1005.80
2019-05-12T01:42:18.100Z,1005.82
2019-05-12T01:43:18.596Z,1005.85
2019-05-12T01:44:18.231Z,1005.90
2019-05-12T01:45:18.059Z,1005.90
2019-05-12T01:46:18.141Z,1005.91
2019-05-12T01:47:18.581Z,1005.96
2019-05-12T01:48:17.981Z,1005.96
2019-05-12T01:49:18.486Z,1005.97
2019-05-12T01:50:17.794Z,1006.02
2019-05-12T01:51:17.777Z,1006.03
2019-05-12T01:52:17.840Z,1006.02
2019-05-12T01:53:18.044Z,1006.09
2019-05-12T01:54:18.705Z,1006.09
2019-05-12T01:55:18.419Z,1006.11
2019-05-12T01:56:18.114Z,1006.09
2019-05-12T01:57:16.779Z,1006.09
2019-05-12T01:58:19.056Z,1006.11
2019-05-12T01:59:18.371Z,1006.17
2019-05-12T02:00:18.170Z,1006.18
2019-05-12T02:01:15.958Z,1006.20
2019-05-12T02:02:17.857Z,1006.24
2019-05-12T02:03:17.808Z,1006.24
2019-05-12T02:04:17.997Z,1006.30
2019-05-12T02:05:18.187Z,1006.28
2019-05-12T02:06:15.900Z,1006.36
2019-05-12T02:07:15.921Z,1006.36
2019-05-12T02:08:15.893Z,1006.37
2019-05-12T02:09:15.897Z,1006.41
2019-05-12T02:10:17.911Z,1006.44
2019-05-12T02:11:18.102Z,1006.42
2019-05-12T02:12:18.155Z,1006.44
2019-05-12T02:13:18.166Z,1006.45
2019-05-12T02:14:18.128Z,1006.48
2019-05-12T02:15:18.211Z,1006.48
2019-05-12T02:16:15.792Z,1006.48
2019-05-12T02:17:17.850Z,1006.51
2019-05-12T02:18:17.725Z,1006.55
2019-05-12T02:19:17.823Z,1006.54
2019-05-12T02:20:17.919Z,1006.57
2019-05-12T02:21:15.733Z,1006.56
2019-05-12T02:22:15.743Z,1006.59
2019-05-12T02:23:17.772Z,1006.58
2019-05-12T02:24:24.293Z,1006.63
2019-05-12T02:25:18.487Z,1006.64
2019-05-12T02:26:15.677Z,1006.63
2019-05-12T02:27:17.816Z,1006.68
2019-05-12T02:28:17.955Z,1006.73
2019-05-12T02:29:15.641Z,1006.74
2019-05-12T02:30:15.657Z,1006.77
2019-05-12T02:31:15.642Z,1006.80
2019-05-12T02:32:15.614Z,1006.80
2019-05-12T02:33:16.143Z,1006.83
2019-05-12T02:34:16.035Z,1006.80
2019-05-12T02:35:16.279Z,1006.82
2019-05-12T02:36:15.562Z,1006.83
2019-05-12T02:37:15.552Z,1006.83
2019-05-12T02:38:15.539Z,1006.81
2019-05-12T02:39:15.528Z,1006.83
2019-05-12T02:40:15.560Z,1006.83
2019-05-12T02:41:15.821Z,1006.84
2019-05-12T02:42:15.784Z,1006.85
2019-05-12T02:43:15.714Z,1006.82
2019-05-12T02:44:15.476Z,1006.81
2019-05-12T02:45:15.721Z,1006.85
2019-05-12T02:46:15.891Z,1006.86
2019-05-12T02:47:16.128Z,1006.91
2019-05-12T02:48:15.430Z,1006.97
2019-05-12T02:49:15.902Z,1006.99
2019-05-12T02:50:15.429Z,1007.02
2019-05-12T02:51:15.792Z,1007.06
2019-05-12T02:52:15.549Z,1007.09
2019-05-12T02:53:15.394Z,1007.09
2019-05-12T02:54:15.362Z,1007.12
2019-05-12T02:55:15.349Z,1007.10
2019-05-12T02:56:15.393Z,1007.11
2019-05-12T02:57:15.326Z,1007.13
2019-05-12T02:58:15.507Z,1007.13
2019-05-12T02:59:16.261Z,1007.16
2019-05-12T03:00:16.205Z,1007.18
2019-05-12T03:01:15.450Z,1007.12
2019-05-12T03:02:15.269Z,1007.18
2019-05-12T03:03:15.257Z,1007.19
2019-05-12T03:04:15.247Z,1007.17
2019-05-12T03:05:15.259Z,1007.18
2019-05-12T03:06:15.329Z,1007.23
2019-05-12T03:07:15.601Z,1007.23
2019-05-12T03:08:15.618Z,1007.25
2019-05-12T03:09:15.352Z,1007.23
2019-05-12T03:10:15.187Z,1007.27
2019-05-12T03:11:15.191Z,1007.28
2019-05-12T03:12:15.156Z,1007.25
2019-05-12T03:13:15.143Z,1007.29
2019-05-12T03:14:15.899Z,1007.29
2019-05-12T03:15:15.425Z,1007.33
2019-05-12T03:16:15.289Z,1007.36
2019-05-12T03:17:15.412Z,1007.35
2019-05-12T03:18:15.092Z,1007.39
2019-05-12T03:19:15.281Z,1007.39
2019-05-12T03:20:15.651Z,1007.46
2019-05-12T03:21:15.414Z,1007.46
2019-05-12T03:22:15.043Z,1007.47
2019-05-12T03:23:18.983Z,1007.51
2019-05-12T03:24:17.660Z,1007.59
2019-05-12T03:25:20.741Z,1007.50
2019-05-12T03:26:15.997Z,1007.57
2019-05-12T03:27:17.715Z,1007.59
2019-05-12T03:28:16.094Z,1007.61
2019-05-12T03:29:15.119Z,1007.63
2019-05-12T03:30:19.472Z,1007.66
2019-05-12T03:31:22.113Z,1007.67
2019-05-12T03:32:17.818Z,1007.68
2019-05-12T03:33:19.708Z,1007.70
2019-05-12T03:34:19.357Z,1007.73
2019-05-12T03:35:17.490Z,1007.70
2019-05-12T03:36:17.995Z,1007.72
2019-05-12T03:37:17.944Z,1007.73
2019-05-12T03:38:15.167Z,1007.77
2019-05-12T03:39:15.205Z,1007.78
2019-05-12T03:40:14.842Z,1007.82
2019-05-12T03:41:15.064Z,1007.83
2019-05-12T03:42:14.821Z,1007.86
2019-05-12T03:43:15.053Z,1007.88
2019-05-12T03:44:15.322Z,1007.92
2019-05-12T03:45:15.156Z,1007.94
2019-05-12T03:46:15.402Z,1007.98
2019-05-12T03:47:14.761Z,1008.02
2019-05-12T03:48:15.222Z,1007.99
2019-05-12T03:49:15.525Z,1007.99
2019-05-12T03:50:15.062Z,1008.01
2019-05-12T03:51:15.630Z,1008.01
2019-05-12T03:52:15.384Z,1007.99
2019-05-12T03:53:15.575Z,1008.00
2019-05-12T03:54:15.399Z,1008.00
2019-05-12T03:55:30.300Z,1008.02
2019-05-12T03:56:15.658Z,1008.03
2019-05-12T03:57:15.202Z,1008.03
2019-05-12T03:58:15.461Z,1008.02
2019-05-12T03:59:15.308Z,1008.04
2019-05-12T04:00:15.947Z,1008.01
2019-05-12T04:01:15.248Z,1008.04
2019-05-12T04:02:15.206Z,1008.08
2019-05-12T04:03:15.490Z,1008.08
2019-05-12T04:04:15.298Z,1008.10
2019-05-12T04:05:15.783Z,1008.11
2019-05-12T04:06:15.357Z,1008.13
2019-05-12T04:07:15.416Z,1008.14
2019-05-12T04:08:15.784Z,1008.14
2019-05-12T04:09:15.431Z,1008.15
2019-05-12T04:10:15.537Z,1008.12
2019-05-12T04:11:14.813Z,1008.12
2019-05-12T04:12:15.016Z,1008.18
2019-05-12T04:13:15.279Z,1008.13
2019-05-12T04:14:15.012Z,1008.18
2019-05-12T04:15:15.419Z,1008.24
2019-05-12T04:16:16.473Z,1008.20
2019-05-12T04:17:15.059Z,1008.23
2019-05-12T04:18:15.848Z,1008.24
2019-05-12T04:19:14.927Z,1008.30
2019-05-12T04:20:15.446Z,1008.27
2019-05-12T04:21:15.529Z,1008.31
2019-05-12T04:22:15.421Z,1008.29
2019-05-12T04:23:15.424Z,1008.28
2019-05-12T04:24:14.556Z,1008.30
2019-05-12T04:25:14.869Z,1008.33
2019-05-12T04:26:17.036Z,1008.32
2019-05-12T04:27:15.236Z,1008.36
2019-05-12T04:28:15.179Z,1008.37
2019-05-12T04:29:15.412Z,1008.35
2019-05-12T04:30:14.775Z,1008.37
2019-05-12T04:31:15.473Z,1008.41
2019-05-12T04:32:14.592Z,1008.48
2019-05-12T04:33:15.427Z,1008.46
2019-05-12T04:34:18.658Z,1008.48
2019-05-12T04:35:15.308Z,1008.51
2019-05-12T04:36:15.016Z,1008.55
2019-05-12T04:37:14.948Z,1008.55
2019-05-12T04:38:15.186Z,1008.58
2019-05-12T04:39:14.833Z,1008.63
2019-05-12T04:40:15.072Z,1008.62
2019-05-12T04:41:14.710Z,1008.65
2019-05-12T04:42:15.037Z,1008.66
2019-05-12T04:43:14.800Z,1008.70
2019-05-12T04:44:15.431Z,1008.75
2019-05-12T04:45:15.573Z,1008.70
2019-05-12T04:46:14.657Z,1008.71
2019-05-12T04:47:14.668Z,1008.72
2019-05-12T04:48:15.646Z,1008.73
2019-05-12T04:49:15.837Z,1008.70
2019-05-12T04:50:15.650Z,1008.76
2019-05-12T04:51:15.345Z,1008.73
2019-05-12T04:52:15.603Z,1008.75
2019-05-12T04:53:14.614Z,1008.74
2019-05-12T04:54:15.203Z,1008.78
2019-05-12T04:55:15.161Z,1008.82
2019-05-12T04:56:19.317Z,1008.81
2019-05-12T04:57:15.163Z,1008.82
2019-05-12T04:58:15.557Z,1008.84
2019-05-12T04:59:15.638Z,1008.88
2019-05-12T05:00:15.835Z,1008.88
2019-05-12T05:01:15.621Z,1008.90
2019-05-12T05:02:15.497Z,1008.99
2019-05-12T05:03:14.442Z,1009.01
2019-05-12T05:04:15.473Z,1009.01
2019-05-12T05:05:14.590Z,1009.03
2019-05-12T05:06:14.799Z,1009.04
2019-05-12T05:07:15.038Z,1009.02
2019-05-12T05:08:16.851Z,1009.05
2019-05-12T05:09:14.864Z,1009.11
2019-05-12T05:10:14.734Z,1009.11
2019-05-12T05:11:14.729Z,1009.23
2019-05-12T05:12:14.081Z,1009.19
2019-05-12T05:13:14.978Z,1009.18
2019-05-12T05:14:14.431Z,1009.17
2019-05-12T05:15:14.773Z,1009.24
2019-05-12T05:16:14.512Z,1009.22
2019-05-12T05:17:15.040Z,1009.25
2019-05-12T05:18:13.740Z,1009.27
2019-05-12T05:19:13.962Z,1009.29
2019-05-12T05:20:13.755Z,1009.30
2019-05-12T05:21:14.051Z,1009.34
2019-05-12T05:22:13.798Z,1009.30
2019-05-12T05:23:14.324Z,1009.34
2019-05-12T05:24:14.338Z,1009.39
2019-05-12T05:25:14.406Z,1009.41
2019-05-12T05:26:22.189Z,1009.40
2019-05-12T05:27:14.664Z,1009.46
2019-05-12T05:28:14.655Z,1009.42
2019-05-12T05:29:13.754Z,1009.46
2019-05-12T05:30:13.998Z,1009.53
2019-05-12T05:31:14.111Z,1009.56
2019-05-12T05:32:14.106Z,1009.59
2019-05-12T05:33:14.463Z,1009.56
2019-05-12T05:34:14.918Z,1009.59
2019-05-12T05:35:13.828Z,1009.63
2019-05-12T05:36:15.208Z,1009.64
2019-05-12T05:37:14.694Z,1009.64
2019-05-12T05:38:19.144Z,1009.61
2019-05-12T05:39:14.517Z,1009.65
2019-05-12T05:40:14.290Z,1009.65
2019-05-12T05:41:13.598Z,1009.69
2019-05-12T05:42:13.592Z,1009.69
2019-05-12T05:43:18.316Z,1009.70
2019-05-12T05:44:14.450Z,1009.73
2019-05-12T05:45:19.638Z,1009.70
2019-05-12T05:46:14.442Z,1009.77
2019-05-12T05:47:13.917Z,1009.77
2019-05-12T05:48:13.727Z,1009.75
2019-05-12T05:49:13.463Z,1009.83
2019-05-12T05:50:13.702Z,1009.83
2019-05-12T05:51:13.714Z,1009.87
2019-05-12T05:52:13.801Z,1009.88
2019-05-12T05:53:17.550Z,1009.92
2019-05-12T05:54:14.334Z,1009.89
2019-05-12T05:55:18.858Z,1009.97
2019-05-12T05:56:16.540Z,1009.96
2019-05-12T05:57:14.337Z,1009.92
2019-05-12T05:58:15.407Z,1009.94
2019-05-12T05:59:15.052Z,1009.98
2019-05-12T06:00:21.712Z,1009.96
2019-05-12T06:01:14.256Z,1009.98
2019-05-12T06:02:13.878Z,1009.98
2019-05-12T06:03:22.767Z,1010.02
2019-05-12T06:04:14.229Z,1009.99
2019-05-12T06:05:14.420Z,1009.99
2019-05-12T06:06:15.416Z,1009.95
2019-05-12T06:07:14.359Z,1009.98
2019-05-12T06:08:16.551Z,1009.99
2019-05-12T06:09:14.253Z,1009.98
2019-05-12T06:10:14.494Z,1010.04
2019-05-12T06:11:14.861Z,1010.04
2019-05-12T06:12:14.133Z,1010.06
2019-05-12T06:13:14.370Z,1010.11
2019-05-12T06:14:15.990Z,1010.08
2019-05-12T06:15:13.668Z,1010.08
2019-05-12T06:16:20.128Z,1010.09
2019-05-12T06:17:14.684Z,1010.09
2019-05-12T06:18:13.669Z,1010.09
2019-05-12T06:19:14.106Z,1010.16
2019-05-12T06:20:13.570Z,1010.18
2019-05-12T06:21:13.770Z,1010.20
2019-05-12T06:22:15.318Z,1010.21
2019-05-12T06:23:14.823Z,1010.25
2019-05-12T06:24:15.691Z,1010.17
2019-05-12T06:25:16.239Z,1010.22
2019-05-12T06:26:14.011Z,1010.21
2019-05-12T06:27:16.133Z,1010.23
2019-05-12T06:28:14.582Z,1010.24
2019-05-12T06:29:20.116Z,1010.28
2019-05-12T06:30:14.739Z,1010.27
2019-05-12T06:31:13.863Z,1010.26
2019-05-12T06:32:14.182Z,1010.25
2019-05-12T06:33:14.400Z,1010.29
2019-05-12T06:34:18.709Z,1010.32
2019-05-12T06:35:15.088Z,1010.33
2019-05-12T06:36:21.778Z,1010.37
2019-05-12T06:37:16.942Z,1010.39
2019-05-12T06:38:13.597Z,1010.43
2019-05-12T06:39:16.471Z,1010.45
2019-05-12T06:40:14.217Z,1010.40
2019-05-12T06:41:20.476Z,1010.43
2019-05-12T06:42:16.824Z,1010.48
2019-05-12T06:43:13.932Z,1010.49
2019-05-12T06:44:14.874Z,1010.59
2019-05-12T06:45:14.254Z,1010.61
2019-05-12T06:46:20.286Z,1010.64
2019-05-12T06:47:14.334Z,1010.57
2019-05-12T06:48:14.052Z,1010.58
2019-05-12T06:49:17.354Z,1010.55
2019-05-12T06:50:14.532Z,1010.62
2019-05-12T06:51:16.902Z,1010.63
2019-05-12T06:52:14.350Z,1010.58
2019-05-12T06:53:13.919Z,1010.60
2019-05-12T06:54:15.081Z,1010.57
2019-05-12T06:55:14.685Z,1010.65
2019-05-12T06:56:17.595Z,1010.62
2019-05-12T06:57:24.195Z,1010.65
2019-05-12T06:58:14.118Z,1010.63
2019-05-12T06:59:14.750Z,1010.62
2019-05-12T07:00:14.578Z,1010.63
2019-05-12T07:01:19.088Z,1010.63
2019-05-12T07:02:13.894Z,1010.60
2019-05-12T07:03:14.325Z,1010.61
2019-05-12T07:04:14.125Z,1010.65
2019-05-12T07:05:14.614Z,1010.73
2019-05-12T07:06:17.992Z,1010.70
2019-05-12T07:07:14.157Z,1010.64
2019-05-12T07:08:20.019Z,1010.68
2019-05-12T07:09:16.431Z,1010.71
2019-05-12T07:10:35.099Z,1010.76
2019-05-12T07:11:14.301Z,1010.78
2019-05-12T07:12:13.754Z,1010.75
2019-05-12T07:13:14.768Z,1010.74
2019-05-12T07:15:14.369Z,1010.77
2019-05-12T07:16:16.605Z,1010.82
2019-05-12T07:17:14.514Z,1010.91
2019-05-12T07:18:14.062Z,1010.84
2019-05-12T07:19:17.313Z,1010.82
2019-05-12T07:20:14.757Z,1010.88
2019-05-12T07:21:15.517Z,1010.86
2019-05-12T07:22:22.037Z,1010.82
2019-05-12T07:23:14.250Z,1010.84
2019-05-12T07:24:14.234Z,1010.85
2019-05-12T07:25:13.453Z,1010.90
2019-05-12T07:26:17.874Z,1010.92
2019-05-12T07:27:14.112Z,1010.97
2019-05-12T07:28:14.344Z,1010.92
2019-05-12T07:29:13.383Z,1010.88
2019-05-12T07:30:13.682Z,1010.98
2019-05-12T07:31:14.241Z,1010.92
2019-05-12T07:32:16.610Z,1010.91
2019-05-12T07:33:14.615Z,1010.82
2019-05-12T07:34:13.621Z,1010.93
2019-05-12T07:35:14.631Z,1010.92
2019-05-12T07:36:13.754Z,1010.91
2019-05-12T07:37:12.196Z,1010.93
2019-05-12T07:38:20.546Z,1010.93
2019-05-12T07:39:13.613Z,1010.95
2019-05-12T07:40:13.765Z,1010.95
2019-05-12T07:41:14.240Z,1010.97
2019-05-12T07:42:13.367Z,1010.97
2019-05-12T07:43:18.626Z,1011.07
2019-05-12T07:44:14.230Z,1011.13
2019-05-12T07:45:20.674Z,1011.06
2019-05-12T07:46:13.478Z,1011.06
2019-05-12T07:47:13.770Z,1011.10
2019-05-12T07:48:13.858Z,1011.07
2019-05-12T07:49:14.043Z,1011.02
2019-05-12T07:50:16.154Z,1011.01
2019-05-12T07:51:13.766Z,1010.99
2019-05-12T07:52:13.759Z,1010.94
2019-05-12T07:53:14.296Z,1011.00
2019-05-12T07:54:14.135Z,1010.96
2019-05-12T07:55:14.589Z,1010.94
2019-05-12T07:56:14.291Z,1010.96
2019-05-12T07:57:17.157Z,1010.96
2019-05-12T07:58:18.287Z,1011.07
2019-05-12T07:59:13.544Z,1010.99
2019-05-12T08:00:21.016Z,1011.00
2019-05-12T08:01:14.595Z,1011.02
2019-05-12T08:02:14.145Z,1011.05
2019-05-12T08:03:20.697Z,1011.12
2019-05-12T08:04:13.448Z,1011.17
2019-05-12T08:05:19.437Z,1011.16
2019-05-12T08:06:14.237Z,1011.03
2019-05-12T08:07:14.291Z,1011.03
2019-05-12T08:08:11.829Z,1011.11
2019-05-12T08:09:13.594Z,1011.09
2019-05-12T08:10:15.864Z,1011.10
2019-05-12T08:11:14.904Z,1011.13
2019-05-12T08:12:16.374Z,1011.16
2019-05-12T08:13:14.819Z,1011.22
2019-05-12T08:14:13.692Z,1011.22
2019-05-12T08:15:14.002Z,1011.14
2019-05-12T08:16:14.011Z,1011.18
2019-05-12T08:17:16.881Z,1011.20
2019-05-12T08:18:14.036Z,1011.10
2019-05-12T08:19:17.230Z,1011.06
2019-05-12T08:20:13.497Z,1011.04
2019-05-12T08:21:13.819Z,1011.10
2019-05-12T08:22:13.562Z,1011.00
2019-05-12T08:23:13.921Z,1011.05
2019-05-12T08:24:11.647Z,1011.06
2019-05-12T08:25:13.517Z,1011.09
2019-05-12T08:26:17.906Z,1011.06
2019-05-12T08:27:14.242Z,1011.10
2019-05-12T08:28:18.053Z,1011.21
2019-05-12T08:29:16.913Z,1011.16
2019-05-12T08:30:13.820Z,1011.17
2019-05-12T08:31:13.957Z,1011.16
2019-05-12T08:32:15.946Z,1011.16
2019-05-12T08:33:14.687Z,1011.10
2019-05-12T08:34:13.533Z,1011.08
2019-05-12T08:35:13.739Z,1011.03
2019-05-12T08:36:15.509Z,1010.98
2019-05-12T08:37:13.778Z,1011.02
2019-05-12T08:38:11.514Z,1011.07
2019-05-12T08:39:18.123Z,1011.09
2019-05-12T08:40:12.464Z,1011.15
2019-05-12T08:41:11.483Z,1011.16
2019-05-12T08:42:11.585Z,1011.18
2019-05-12T08:43:11.434Z,1011.15
2019-05-12T08:44:13.404Z,1011.12
2019-05-12T08:45:17.015Z,1011.19
2019-05-12T08:46:15.289Z,1011.34
2019-05-12T08:47:12.186Z,1011.20
2019-05-12T08:48:17.149Z,1011.18
2019-05-12T08:49:14.390Z,1011.29
2019-05-12T08:50:13.588Z,1011.31
2019-05-12T08:51:14.438Z,1011.29
2019-05-12T08:52:14.206Z,1011.39
2019-05-12T08:53:19.986Z,1011.26
2019-05-12T08:54:14.231Z,1011.23
2019-05-12T08:55:13.877Z,1011.21
2019-05-12T08:56:18.669Z,1011.22
2019-05-12T08:57:14.371Z,1011.30
2019-05-12T08:58:28.177Z,1011.26
2019-05-12T08:59:17.539Z,1011.30
2019-05-12T09:00:13.499Z,1011.28
2019-05-12T09:01:13.662Z,1011.29
2019-05-12T09:02:13.751Z,1011.28
2019-05-12T09:03:11.217Z,1011.29
2019-05-12T09:04:15.807Z,1011.33
2019-05-12T09:05:14.281Z,1011.35
2019-05-12T09:06:15.484Z,1011.32
2019-05-12T09:07:13.878Z,1011.13
2019-05-12T09:08:11.151Z,1011.20
2019-05-12T09:09:11.146Z,1011.39
2019-05-12T09:10:11.127Z,1011.41
2019-05-12T09:11:11.139Z,1011.33
2019-05-12T09:12:11.104Z,1011.35
2019-05-12T09:13:11.095Z,1011.35
2019-05-12T09:14:11.082Z,1011.16
2019-05-12T09:15:13.423Z,1011.18
2019-05-12T09:16:11.061Z,1011.35
2019-05-12T09:17:11.050Z,1011.18
2019-05-12T09:18:11.044Z,1011.17
2019-05-12T09:19:18.215Z,1011.32
2019-05-12T09:20:13.743Z,1011.45
2019-05-12T09:21:11.004Z,1011.39
2019-05-12T09:22:18.493Z,1011.38
2019-05-12T09:23:13.599Z,1011.45
2019-05-12T09:24:15.632Z,1011.42
2019-05-12T09:25:14.106Z,1011.33
2019-05-12T09:26:13.020Z,1011.33
2019-05-12T09:27:10.959Z,1011.53
2019-05-12T09:28:10.924Z,1011.41
2019-05-12T09:29:10.916Z,1011.44
2019-05-12T09:30:10.902Z,1011.38
2019-05-12T09:31:10.891Z,1011.41
2019-05-12T09:32:10.911Z,1011.51
2019-05-12T09:33:10.868Z,1011.46
2019-05-12T09:34:11.952Z,1011.32
2019-05-12T09:35:10.853Z,1011.48
2019-05-12T09:36:11.425Z,1011.48
2019-05-12T09:37:14.123Z,1011.47
2019-05-12T09:38:11.301Z,1011.49
2019-05-12T09:39:14.059Z,1011.42
2019-05-12T09:40:10.789Z,1011.42
2019-05-12T09:41:10.778Z,1011.37
2019-05-12T09:42:10.792Z,1011.46
2019-05-12T09:43:11.457Z,1011.43
2019-05-12T09:44:10.755Z,1011.44
2019-05-12T09:45:10.774Z,1011.42
2019-05-12T09:46:10.723Z,1011.44
2019-05-12T09:47:19.437Z,1011.47
2019-05-12T09:48:13.861Z,1011.48
2019-05-12T09:49:10.687Z,1011.44
2019-05-12T09:50:18.429Z,1011.48
2019-05-12T09:51:13.387Z,1011.41
2019-05-12T09:52:21.642Z,1011.41
2019-05-12T09:53:11.709Z,1011.46
2019-05-12T09:54:10.632Z,1011.46
2019-05-12T09:55:10.620Z,1011.49
2019-05-12T09:56:10.608Z,1011.57
2019-05-12T09:57:10.614Z,1011.58
2019-05-12T09:58:15.836Z,1011.58
2019-05-12T09:59:19.106Z,1011.54
2019-05-12T10:00:13.605Z,1011.56
2019-05-12T10:01:10.555Z,1011.56
2019-05-12T10:02:15.783Z,1011.56
2019-05-12T10:03:13.696Z,1011.56
2019-05-12T10:04:15.387Z,1011.62
2019-05-12T10:05:14.213Z,1011.56
2019-05-12T10:06:11.501Z,1011.51
2019-05-12T10:07:11.484Z,1011.57
2019-05-12T10:08:10.472Z,1011.58
2019-05-12T10:09:17.606Z,1011.57
2019-05-12T10:10:14.013Z,1011.48
2019-05-12T10:11:15.749Z,1011.51
2019-05-12T10:12:13.578Z,1011.59
2019-05-12T10:13:10.416Z,1011.57
2019-05-12T10:14:11.036Z,1011.55
2019-05-12T10:15:10.396Z,1011.62
2019-05-12T10:16:10.390Z,1011.59
2019-05-12T10:17:10.370Z,1011.58
2019-05-12T10:18:11.373Z,1011.58
2019-05-12T10:19:10.374Z,1011.58
2019-05-12T10:20:10.340Z,1011.59
2019-05-12T10:21:15.234Z,1011.58
2019-05-12T10:22:11.312Z,1011.62
2019-05-12T10:23:15.644Z,1011.58
2019-05-12T10:24:11.320Z,1011.51
2019-05-12T10:25:10.286Z,1011.59
2019-05-12T10:26:11.825Z,1011.72
2019-05-12T10:27:10.258Z,1011.66
2019-05-12T10:28:13.026Z,1011.65
2019-05-12T10:29:19.651Z,1011.69
2019-05-12T10:30:12.665Z,1011.68
2019-05-12T10:31:13.673Z,1011.65
2019-05-12T10:32:10.540Z,1011.69
2019-05-12T10:33:10.192Z,1011.70
2019-05-12T10:34:10.257Z,1011.64
2019-05-12T10:35:12.530Z,1011.71
2019-05-12T10:36:11.180Z,1011.68
2019-05-12T10:37:10.145Z,1011.68
2019-05-12T10:38:10.932Z,1011.70
2019-05-12T10:39:10.122Z,1011.74
2019-05-12T10:40:10.111Z,1011.72
2019-05-12T10:41:10.125Z,1011.79
2019-05-12T10:42:10.088Z,1011.76
2019-05-12T10:43:10.076Z,1011.81
2019-05-12T10:44:10.066Z,1011.89
2019-05-12T10:45:10.834Z,1011.86
2019-05-12T10:46:13.117Z,1011.71
2019-05-12T10:47:10.034Z,1011.82
2019-05-12T10:48:10.021Z,1011.71
2019-05-12T10:49:10.011Z,1011.78
2019-05-12T10:50:10.025Z,1011.81
2019-05-12T10:51:09.987Z,1011.81
2019-05-12T10:52:09.976Z,1011.77
2019-05-12T10:53:15.448Z,1011.77
2019-05-12T10:54:13.107Z,1011.81
2019-05-12T10:55:09.945Z,1011.79
2019-05-12T10:56:09.931Z,1011.78
2019-05-12T10:57:09.919Z,1011.80
2019-05-12T10:58:09.908Z,1011.87
2019-05-12T10:59:09.898Z,1011.76
2019-05-12T11:00:09.916Z,1011.77
2019-05-12T11:01:09.876Z,1011.79
2019-05-12T11:02:09.881Z,1011.77
2019-05-12T11:03:12.345Z,1011.83
2019-05-12T11:04:09.841Z,1011.81
2019-05-12T11:05:12.444Z,1011.88
2019-05-12T11:06:10.841Z,1011.87
2019-05-12T11:07:09.807Z,1011.96
2019-05-12T11:08:11.348Z,1011.88
2019-05-12T11:09:09.789Z,1011.90
2019-05-12T11:10:15.142Z,1011.88
2019-05-12T11:11:10.763Z,1011.91
2019-05-12T11:12:09.770Z,1011.85
2019-05-12T11:13:10.051Z,1011.84
2019-05-12T11:14:09.761Z,1011.91
2019-05-12T11:15:09.720Z,1011.91
2019-05-12T11:16:09.707Z,1011.99
2019-05-12T11:17:09.714Z,1011.90
2019-05-12T11:18:09.682Z,1011.89
2019-05-12T11:19:10.686Z,1011.98
2019-05-12T11:20:09.660Z,1011.92
2019-05-12T11:21:09.650Z,1011.94
2019-05-12T11:22:09.639Z,1011.90
2019-05-12T11:23:09.626Z,1011.93
2019-05-12T11:24:09.642Z,1011.87
2019-05-12T11:25:09.646Z,1011.92
2019-05-12T11:26:09.593Z,1011.92
2019-05-12T11:27:09.604Z,1011.89
2019-05-12T11:28:09.572Z,1011.91
2019-05-12T11:29:09.583Z,1011.93
2019-05-12T11:30:09.577Z,1011.91
2019-05-12T11:31:09.536Z,1011.99
2019-05-12T11:32:09.526Z,1011.91
2019-05-12T11:33:09.513Z,1011.97
2019-05-12T11:34:09.504Z,1011.97
2019-05-12T11:35:09.514Z,1011.93
2019-05-12T11:36:09.510Z,1011.96
2019-05-12T11:37:09.470Z,1011.95
2019-05-12T11:38:09.459Z,1011.99
2019-05-12T11:39:09.447Z,1011.99
2019-05-12T11:40:09.436Z,1012.02
2019-05-12T11:41:10.126Z,1012.02
2019-05-12T11:42:10.411Z,1012.08
2019-05-12T11:43:09.403Z,1012.28
2019-05-12T11:44:09.395Z,1012.12
2019-05-12T11:45:09.379Z,1012.13
2019-05-12T11:46:09.382Z,1012.13
2019-05-12T11:47:14.721Z,1012.14
2019-05-12T11:48:10.530Z,1012.16
2019-05-12T11:49:09.711Z,1012.18
2019-05-12T11:50:09.994Z,1012.13
2019-05-12T11:51:09.403Z,1012.09
2019-05-12T11:52:15.444Z,1012.09
2019-05-12T11:53:10.288Z,1012.13
2019-05-12T11:54:10.804Z,1012.14
2019-05-12T11:55:09.270Z,1012.14
2019-05-12T11:56:09.440Z,1012.12
2019-05-12T11:57:09.248Z,1012.12
2019-05-12T11:58:11.444Z,1012.17
2019-05-12T11:59:09.222Z,1012.19
2019-05-12T12:00:09.218Z,1012.28
2019-05-12T12:01:09.205Z,1012.21
2019-05-12T12:02:09.188Z,1012.16
2019-05-12T12:03:13.350Z,1012.17
2019-05-12T12:04:10.194Z,1012.19
2019-05-12T12:05:09.179Z,1012.18
2019-05-12T12:06:09.142Z,1012.12